Avoca, Iowa
Current Conditions -  °F | °C
As of 10:15 AM on Thursday 29 Jan 2015 (Local Time) from KHNR Reporting Station
Overcast Overcast  
Wind Chill: 22°   Ceiling: 2100
Heat Index: 34°   Visibility: 10mi
Dew Point: 30°   Wind: 22mph
Humidity: 87%   Direction: 330°NNW
Pressure: 30.35"   Gusts: 36mph
Location:  41.48°N, 95.34°W
Report Text: KHNR 291615Z AUTO 33019G31KT 10SM OVC021 01/M01 A3035 RMK AO2
Loading
Personal Weather Stations






























Interactive Weather Map New forecast layout! Learn more

10-Day Weather Forecast

Advertisements
Track Severe Weather on mobile